createdAt,value
2019-04-25T00:00:05.240Z,19.06
2019-04-25T00:01:05.805Z,19.00
2019-04-25T00:02:05.330Z,19.06
2019-04-25T00:03:05.793Z,19.06
2019-04-25T00:04:05.312Z,19.06
2019-04-25T00:05:05.411Z,19.00
2019-04-25T00:06:05.816Z,18.88
2019-04-25T00:07:05.980Z,18.81
2019-04-25T00:08:05.092Z,18.88
2019-04-25T00:09:05.276Z,18.81
2019-04-25T00:10:05.386Z,18.81
2019-04-25T00:11:05.092Z,18.75
2019-04-25T00:12:05.162Z,18.81
2019-04-25T00:13:05.726Z,18.75
2019-04-25T00:14:05.239Z,18.69
2019-04-25T00:15:05.829Z,18.62
2019-04-25T00:16:05.790Z,18.56
2019-04-25T00:17:05.082Z,18.44
2019-04-25T00:18:05.327Z,18.44
2019-04-25T00:19:05.806Z,18.38
2019-04-25T00:20:05.328Z,18.25
2019-04-25T00:21:05.319Z,18.25
2019-04-25T00:22:05.481Z,18.25
2019-04-25T00:23:05.660Z,18.25
2019-04-25T00:24:05.166Z,18.06
2019-04-25T00:25:14.896Z,18.06
2019-04-25T00:26:05.178Z,18.06
2019-04-25T00:27:05.242Z,18.06
2019-04-25T00:28:05.564Z,18.06
2019-04-25T00:29:05.967Z,18.12
2019-04-25T00:30:05.667Z,18.00
2019-04-25T00:31:05.827Z,18.12
2019-04-25T00:32:05.880Z,18.12
2019-04-25T00:33:06.131Z,18.06
2019-04-25T00:34:05.152Z,17.94
2019-04-25T00:35:05.150Z,17.94
2019-04-25T00:36:05.589Z,18.00
2019-04-25T00:37:05.562Z,17.88
2019-04-25T00:38:05.724Z,17.94
2019-04-25T00:39:05.413Z,18.06
2019-04-25T00:40:05.169Z,18.00
2019-04-25T00:41:05.505Z,18.00
2019-04-25T00:42:05.897Z,17.94
2019-04-25T00:43:05.240Z,17.88
2019-04-25T00:44:05.977Z,18.06
2019-04-25T00:45:05.550Z,17.94
2019-04-25T00:46:05.102Z,18.00
2019-04-25T00:47:05.736Z,17.88
2019-04-25T00:48:07.094Z,18.25
2019-04-25T00:49:05.534Z,18.12
2019-04-25T00:50:05.394Z,18.12
2019-04-25T00:51:05.873Z,18.00
2019-04-25T00:52:05.421Z,18.06
2019-04-25T00:53:05.239Z,18.12
2019-04-25T00:54:05.001Z,18.19
2019-04-25T00:55:05.396Z,18.19
2019-04-25T00:56:05.302Z,18.06
2019-04-25T00:57:05.402Z,17.81
2019-04-25T00:58:05.805Z,17.81
2019-04-25T00:59:05.187Z,17.94
2019-04-25T01:00:05.378Z,18.06
2019-04-25T01:01:05.960Z,18.12
2019-04-25T01:02:07.528Z,18.00
2019-04-25T01:03:05.235Z,18.12
2019-04-25T01:04:05.822Z,18.31
2019-04-25T01:05:05.891Z,18.06
2019-04-25T01:06:05.571Z,18.06
2019-04-25T01:07:05.188Z,18.12
2019-04-25T01:08:05.501Z,18.06
2019-04-25T01:09:05.966Z,17.94
2019-04-25T01:10:05.323Z,18.00
2019-04-25T01:11:05.445Z,18.12
2019-04-25T01:12:05.667Z,17.88
2019-04-25T01:13:05.624Z,17.69
2019-04-25T01:14:05.264Z,17.69
2019-04-25T01:15:05.324Z,17.62
2019-04-25T01:16:05.488Z,17.81
2019-04-25T01:17:05.168Z,17.75
2019-04-25T01:18:05.414Z,17.81
2019-04-25T01:19:05.488Z,17.62
2019-04-25T01:20:06.051Z,17.44
2019-04-25T01:21:05.989Z,17.69
2019-04-25T01:22:05.644Z,17.50
2019-04-25T01:23:05.571Z,17.31
2019-04-25T01:24:05.639Z,17.44
2019-04-25T01:25:05.759Z,17.31
2019-04-25T01:26:05.702Z,17.31
2019-04-25T01:27:05.348Z,17.25
2019-04-25T01:28:05.969Z,17.38
2019-04-25T01:29:05.640Z,17.25
2019-04-25T01:30:06.171Z,17.38
2019-04-25T01:31:05.815Z,17.25
2019-04-25T01:32:05.335Z,17.12
2019-04-25T01:33:05.643Z,17.19
2019-04-25T01:34:05.887Z,17.12
2019-04-25T01:35:05.251Z,17.25
2019-04-25T01:36:06.007Z,17.19
2019-04-25T01:37:06.060Z,17.06
2019-04-25T01:38:05.117Z,16.88
2019-04-25T01:39:05.267Z,16.88
2019-04-25T01:40:05.965Z,16.88
2019-04-25T01:41:05.560Z,17.06
2019-04-25T01:42:05.683Z,16.81
2019-04-25T01:43:05.892Z,16.75
2019-04-25T01:44:05.345Z,16.94
2019-04-25T01:45:05.649Z,17.00
2019-04-25T01:46:05.712Z,16.88
2019-04-25T01:47:05.490Z,16.56
2019-04-25T01:48:05.487Z,16.56
2019-04-25T01:49:05.239Z,16.44
2019-04-25T01:50:05.490Z,16.31
2019-04-25T01:51:05.169Z,16.38
2019-04-25T01:52:05.341Z,16.25
2019-04-25T01:53:06.070Z,16.19
2019-04-25T01:54:05.170Z,16.25
2019-04-25T01:55:05.616Z,16.12
2019-04-25T01:56:07.711Z,16.19
2019-04-25T01:57:05.352Z,16.19
2019-04-25T01:58:05.487Z,16.31
2019-04-25T01:59:05.578Z,16.00
2019-04-25T02:00:05.835Z,15.88
2019-04-25T02:01:05.489Z,15.69
2019-04-25T02:02:06.651Z,15.50
2019-04-25T02:03:05.358Z,15.44
2019-04-25T02:04:05.418Z,15.62
2019-04-25T02:05:05.614Z,15.62
2019-04-25T02:06:06.766Z,15.44
2019-04-25T02:07:05.258Z,15.19
2019-04-25T02:08:06.868Z,15.12
2019-04-25T02:09:05.659Z,15.12
2019-04-25T02:10:05.908Z,15.00
2019-04-25T02:11:05.369Z,15.12
2019-04-25T02:12:05.731Z,15.00
2019-04-25T02:13:05.266Z,15.12
2019-04-25T02:14:05.587Z,15.25
2019-04-25T02:15:06.126Z,15.25
2019-04-25T02:16:05.988Z,15.25
2019-04-25T02:17:06.060Z,15.25
2019-04-25T02:18:05.087Z,15.19
2019-04-25T02:19:05.187Z,15.25
2019-04-25T02:20:05.569Z,15.25
2019-04-25T02:21:05.393Z,15.44
2019-04-25T02:22:05.590Z,15.56
2019-04-25T02:23:06.121Z,15.56
2019-04-25T02:24:05.639Z,15.62
2019-04-25T02:25:05.893Z,15.75
2019-04-25T02:26:15.124Z,15.69
2019-04-25T02:27:05.808Z,15.75
2019-04-25T02:28:05.651Z,15.62
2019-04-25T02:29:05.392Z,15.69
2019-04-25T02:30:06.834Z,15.50
2019-04-25T02:31:08.724Z,15.44
2019-04-25T02:32:08.892Z,15.38
2019-04-25T02:33:08.539Z,15.38
2019-04-25T02:34:08.305Z,15.38
2019-04-25T02:35:09.043Z,15.44
2019-04-25T02:36:08.512Z,15.44
2019-04-25T02:37:09.017Z,15.31
2019-04-25T02:38:08.616Z,15.38
2019-04-25T02:39:08.789Z,15.38
2019-04-25T02:40:07.640Z,15.50
2019-04-25T02:41:07.022Z,15.50
2019-04-25T02:42:07.834Z,15.38
2019-04-25T02:43:07.896Z,15.38
2019-04-25T02:44:09.513Z,15.25
2019-04-25T02:45:08.142Z,15.31
2019-04-25T02:46:07.396Z,15.31
2019-04-25T02:47:07.909Z,15.38
2019-04-25T02:48:07.016Z,15.25
2019-04-25T02:49:08.789Z,15.12
2019-04-25T02:50:07.466Z,15.00
2019-04-25T02:51:07.150Z,15.00
2019-04-25T02:52:07.376Z,14.94
2019-04-25T02:53:07.034Z,14.94
2019-04-25T02:54:07.603Z,14.88
2019-04-25T02:55:10.253Z,15.00
2019-04-25T02:56:19.323Z,15.00
2019-04-25T02:57:07.859Z,15.00
2019-04-25T02:58:09.734Z,14.94
2019-04-25T02:59:08.511Z,14.88
2019-04-25T03:00:07.461Z,14.88
2019-04-25T03:01:16.129Z,14.88
2019-04-25T03:02:07.035Z,14.88
2019-04-25T03:03:08.515Z,14.81
2019-04-25T03:04:09.466Z,14.81
2019-04-25T03:05:09.172Z,14.75
2019-04-25T03:06:07.126Z,14.81
2019-04-25T03:07:07.986Z,14.56
2019-04-25T03:08:08.765Z,14.44
2019-04-25T03:09:06.397Z,14.31
2019-04-25T03:10:07.669Z,14.12
2019-04-25T03:11:07.189Z,14.06
2019-04-25T03:12:07.344Z,14.19
2019-04-25T03:13:10.105Z,14.25
2019-04-25T03:14:08.055Z,14.25
2019-04-25T03:15:08.006Z,14.06
2019-04-25T03:16:08.634Z,13.94
2019-04-25T03:17:08.208Z,13.88
2019-04-25T03:18:09.206Z,13.94
2019-04-25T03:19:07.596Z,14.00
2019-04-25T03:20:09.186Z,14.00
2019-04-25T03:21:11.734Z,13.94
2019-04-25T03:22:09.261Z,14.06
2019-04-25T03:23:07.521Z,14.06
2019-04-25T03:24:10.091Z,14.19
2019-04-25T03:25:08.719Z,14.31
2019-04-25T03:26:06.196Z,14.31
2019-04-25T03:27:06.168Z,14.31
2019-04-25T03:28:06.085Z,14.31
2019-04-25T03:29:06.171Z,14.31
2019-04-25T03:30:09.470Z,14.38
2019-04-25T03:31:11.124Z,14.31
2019-04-25T03:32:09.754Z,14.38
2019-04-25T03:33:10.125Z,14.31
2019-04-25T03:34:10.132Z,14.31
2019-04-25T03:35:06.902Z,14.44
2019-04-25T03:36:06.532Z,14.62
2019-04-25T03:37:06.501Z,14.81
2019-04-25T03:38:06.422Z,15.00
2019-04-25T03:39:06.670Z,15.12
2019-04-25T03:40:06.322Z,15.25
2019-04-25T03:41:06.784Z,15.12
2019-04-25T03:42:06.220Z,14.94
2019-04-25T03:43:06.184Z,14.81
2019-04-25T03:44:05.614Z,14.75
2019-04-25T03:45:06.112Z,14.88
2019-04-25T03:46:06.131Z,15.00
2019-04-25T03:47:06.382Z,15.00
2019-04-25T03:48:06.429Z,14.88
2019-04-25T03:49:06.072Z,14.94
2019-04-25T03:50:06.780Z,14.94
2019-04-25T03:51:05.852Z,14.88
2019-04-25T03:52:06.169Z,14.94
2019-04-25T03:53:05.678Z,15.06
2019-04-25T03:54:07.162Z,15.06
2019-04-25T03:55:07.389Z,15.06
2019-04-25T03:56:07.250Z,15.12
2019-04-25T03:57:06.607Z,15.12
2019-04-25T03:58:08.563Z,15.12
2019-04-25T03:59:06.313Z,15.00
2019-04-25T04:00:06.492Z,14.88
2019-04-25T04:01:07.212Z,14.75
2019-04-25T04:02:07.873Z,14.81
2019-04-25T04:03:06.631Z,14.69
2019-04-25T04:04:06.696Z,14.81
2019-04-25T04:05:06.700Z,14.81
2019-04-25T04:06:07.196Z,14.75
2019-04-25T04:07:08.756Z,14.69
2019-04-25T04:08:06.240Z,14.69
2019-04-25T04:09:06.472Z,14.62
2019-04-25T04:10:05.642Z,14.75
2019-04-25T04:11:07.388Z,14.81
2019-04-25T04:12:06.366Z,14.69
2019-04-25T04:13:06.979Z,14.75
2019-04-25T04:14:06.205Z,14.81
2019-04-25T04:15:06.001Z,14.62
2019-04-25T04:16:06.448Z,14.56
2019-04-25T04:17:06.664Z,14.44
2019-04-25T04:18:06.974Z,14.38
2019-04-25T04:19:05.994Z,14.25
2019-04-25T04:20:07.175Z,14.19
2019-04-25T04:21:06.870Z,14.25
2019-04-25T04:22:05.905Z,14.25
2019-04-25T04:23:05.688Z,14.12
2019-04-25T04:24:06.091Z,14.19
2019-04-25T04:25:07.343Z,14.06
2019-04-25T04:26:06.226Z,14.06
2019-04-25T04:27:07.774Z,14.12
2019-04-25T04:28:06.213Z,14.19
2019-04-25T04:29:06.751Z,14.12
2019-04-25T04:30:06.483Z,14.00
2019-04-25T04:31:06.532Z,13.94
2019-04-25T04:32:06.183Z,13.81
2019-04-25T04:33:06.835Z,13.94
2019-04-25T04:34:07.083Z,13.94
2019-04-25T04:35:06.531Z,13.94
2019-04-25T04:36:05.421Z,13.94
2019-04-25T04:37:06.854Z,14.00
2019-04-25T04:38:05.681Z,14.06
2019-04-25T04:39:05.637Z,14.00
2019-04-25T04:40:05.891Z,13.88
2019-04-25T04:41:05.732Z,13.81
2019-04-25T04:42:05.977Z,13.75
2019-04-25T04:43:05.341Z,14.00
2019-04-25T04:44:05.654Z,14.19
2019-04-25T04:45:06.100Z,14.56
2019-04-25T04:46:05.582Z,14.88
2019-04-25T04:47:05.809Z,15.19
2019-04-25T04:48:05.252Z,15.69
2019-04-25T04:49:05.167Z,16.19
2019-04-25T04:50:05.340Z,16.50
2019-04-25T04:51:06.582Z,16.69
2019-04-25T04:52:06.501Z,16.94
2019-04-25T04:53:05.086Z,17.19
2019-04-25T04:54:05.841Z,17.44
2019-04-25T04:55:08.290Z,17.75
2019-04-25T04:56:05.562Z,18.12
2019-04-25T04:57:17.434Z,18.50
2019-04-25T04:58:05.165Z,18.75
2019-04-25T04:59:05.491Z,19.06
2019-04-25T05:00:05.878Z,19.38
2019-04-25T05:01:05.177Z,19.69
2019-04-25T05:02:05.178Z,20.06
2019-04-25T05:03:05.994Z,19.94
2019-04-25T05:04:05.441Z,19.94
2019-04-25T05:05:05.965Z,20.31
2019-04-25T05:06:05.494Z,20.75
2019-04-25T05:07:06.052Z,20.69
2019-04-25T05:08:05.249Z,20.75
2019-04-25T05:09:05.743Z,20.94
2019-04-25T05:10:05.727Z,21.25
2019-04-25T05:11:05.337Z,21.69
2019-04-25T05:12:05.729Z,21.94
2019-04-25T05:13:05.647Z,22.19
2019-04-25T05:14:06.141Z,22.69
2019-04-25T05:15:05.727Z,23.12
2019-04-25T05:16:06.023Z,23.25
2019-04-25T05:17:05.965Z,23.50
2019-04-25T05:18:05.495Z,23.38
2019-04-25T05:19:05.162Z,23.19
2019-04-25T05:20:06.382Z,23.25
2019-04-25T05:21:05.969Z,23.44
2019-04-25T05:22:05.253Z,24.00
2019-04-25T05:23:05.897Z,24.44
2019-04-25T05:24:05.025Z,24.88
2019-04-25T05:25:05.557Z,25.50
2019-04-25T05:26:05.968Z,26.00
2019-04-25T05:27:05.581Z,25.94
2019-04-25T05:28:05.807Z,25.69
2019-04-25T05:29:05.317Z,25.12
2019-04-25T05:30:05.336Z,25.19
2019-04-25T05:31:05.406Z,25.38
2019-04-25T05:32:05.701Z,25.50
2019-04-25T05:33:05.228Z,25.75
2019-04-25T05:34:07.448Z,25.56
2019-04-25T05:35:06.065Z,25.56
2019-04-25T05:36:06.045Z,25.44
2019-04-25T05:37:05.485Z,25.19
2019-04-25T05:38:05.491Z,25.06
2019-04-25T05:39:05.978Z,24.75
2019-04-25T05:40:05.591Z,24.56
2019-04-25T05:41:05.325Z,24.31
2019-04-25T05:42:07.565Z,24.19
2019-04-25T05:43:05.310Z,23.94
2019-04-25T05:44:05.744Z,23.56
2019-04-25T05:45:06.405Z,23.25
2019-04-25T05:46:05.841Z,23.19
2019-04-25T05:47:05.414Z,23.12
2019-04-25T05:48:05.982Z,23.12
2019-04-25T05:49:05.902Z,23.25
2019-04-25T05:50:05.910Z,23.38
2019-04-25T05:51:05.759Z,23.69
2019-04-25T05:52:06.055Z,24.19
2019-04-25T05:53:05.404Z,24.56
2019-04-25T05:54:05.567Z,24.94
2019-04-25T05:55:05.860Z,25.00
2019-04-25T05:56:05.164Z,25.19
2019-04-25T05:57:05.752Z,25.38
2019-04-25T05:58:06.003Z,25.31
2019-04-25T05:59:05.694Z,25.50
2019-04-25T06:00:05.266Z,25.69
2019-04-25T06:01:06.007Z,26.00
2019-04-25T06:02:05.329Z,26.25
2019-04-25T06:03:06.138Z,26.56
2019-04-25T06:04:05.530Z,26.88
2019-04-25T06:05:05.090Z,26.81
2019-04-25T06:06:05.973Z,26.94
2019-04-25T06:07:05.737Z,27.12
2019-04-25T06:08:06.398Z,27.12
2019-04-25T06:09:05.828Z,26.94
2019-04-25T06:10:05.249Z,26.56
2019-04-25T06:11:05.498Z,26.38
2019-04-25T06:12:05.573Z,26.44
2019-04-25T06:13:05.085Z,26.31
2019-04-25T06:14:05.336Z,26.31
2019-04-25T06:15:05.743Z,26.38
2019-04-25T06:16:05.980Z,26.31
2019-04-25T06:17:05.804Z,26.31
2019-04-25T06:18:05.325Z,26.25
2019-04-25T06:19:13.240Z,26.31
2019-04-25T06:20:06.314Z,26.31
2019-04-25T06:21:05.916Z,26.44
2019-04-25T06:22:06.266Z,26.50
2019-04-25T06:23:05.495Z,26.56
2019-04-25T06:24:05.802Z,26.56
2019-04-25T06:25:10.593Z,26.69
2019-04-25T06:26:18.796Z,26.75
2019-04-25T06:27:05.256Z,26.81
2019-04-25T06:28:05.741Z,26.88
2019-04-25T06:29:05.895Z,26.94
2019-04-25T06:30:05.562Z,26.94
2019-04-25T06:31:10.118Z,27.00
2019-04-25T06:32:08.348Z,27.12
2019-04-25T06:33:05.496Z,27.19
2019-04-25T06:34:05.743Z,27.19
2019-04-25T06:35:05.512Z,27.19
2019-04-25T06:36:05.492Z,27.25
2019-04-25T06:37:06.150Z,27.31
2019-04-25T06:38:06.109Z,27.44
2019-04-25T06:39:05.147Z,27.38
2019-04-25T06:40:07.201Z,27.50
2019-04-25T06:41:05.974Z,27.44
2019-04-25T06:42:05.178Z,27.56
2019-04-25T06:43:05.905Z,27.75
2019-04-25T06:44:05.264Z,27.75
2019-04-25T06:45:05.654Z,27.88
2019-04-25T06:46:05.891Z,28.00
2019-04-25T06:47:05.237Z,28.12
2019-04-25T06:48:05.879Z,28.06
2019-04-25T06:49:05.346Z,28.12
2019-04-25T06:50:05.510Z,28.19
2019-04-25T06:51:05.748Z,28.12
2019-04-25T06:52:05.242Z,28.06
2019-04-25T06:53:05.594Z,28.00
2019-04-25T06:54:05.416Z,27.62
2019-04-25T06:55:05.265Z,27.62
2019-04-25T06:56:05.730Z,27.56
2019-04-25T06:57:05.349Z,27.69
2019-04-25T06:58:11.486Z,27.81
2019-04-25T06:59:05.737Z,27.94
2019-04-25T07:00:05.684Z,28.19
2019-04-25T07:01:05.574Z,28.31
2019-04-25T07:02:05.536Z,28.44
2019-04-25T07:03:05.730Z,28.44
2019-04-25T07:04:05.499Z,28.50
2019-04-25T07:05:05.245Z,28.50
2019-04-25T07:06:05.879Z,28.50
2019-04-25T07:07:11.821Z,28.69
2019-04-25T07:08:05.257Z,28.75
2019-04-25T07:09:05.331Z,28.81
2019-04-25T07:10:05.228Z,28.81
2019-04-25T07:11:05.586Z,28.81
2019-04-25T07:12:06.051Z,28.81
2019-04-25T07:13:05.414Z,28.81
2019-04-25T07:14:05.517Z,28.81
2019-04-25T07:15:05.909Z,28.94
2019-04-25T07:16:05.894Z,29.06
2019-04-25T07:17:05.262Z,29.00
2019-04-25T07:18:05.554Z,29.00
2019-04-25T07:19:05.819Z,29.06
2019-04-25T07:20:05.854Z,29.00
2019-04-25T07:21:06.112Z,29.00
2019-04-25T07:22:05.243Z,29.00
2019-04-25T07:23:05.836Z,29.25
2019-04-25T07:24:06.080Z,29.19
2019-04-25T07:25:05.500Z,29.31
2019-04-25T07:26:05.498Z,29.50
2019-04-25T07:27:06.528Z,29.44
2019-04-25T07:28:05.263Z,29.38
2019-04-25T07:29:05.341Z,29.44
2019-04-25T07:30:06.099Z,29.56
2019-04-25T07:31:05.243Z,29.69
2019-04-25T07:32:05.939Z,29.75
2019-04-25T07:33:05.761Z,29.75
2019-04-25T07:34:06.138Z,29.81
2019-04-25T07:35:05.494Z,29.81
2019-04-25T07:36:05.502Z,29.75
2019-04-25T07:37:06.219Z,29.75
2019-04-25T07:38:05.904Z,29.69
2019-04-25T07:39:05.719Z,29.44
2019-04-25T07:40:06.137Z,29.19
2019-04-25T07:41:05.658Z,29.19
2019-04-25T07:42:05.257Z,29.31
2019-04-25T07:43:07.793Z,29.19
2019-04-25T07:44:05.349Z,28.75
2019-04-25T07:45:05.460Z,28.56
2019-04-25T07:46:05.346Z,28.44
2019-04-25T07:47:05.826Z,28.44
2019-04-25T07:48:05.745Z,28.44
2019-04-25T07:49:06.038Z,28.62
2019-04-25T07:50:07.101Z,28.56
2019-04-25T07:51:05.336Z,28.69
2019-04-25T07:52:05.498Z,28.69
2019-04-25T07:53:05.658Z,28.62
2019-04-25T07:54:05.579Z,28.75
2019-04-25T07:55:05.825Z,28.75
2019-04-25T07:56:05.411Z,28.75
2019-04-25T07:57:05.339Z,28.88
2019-04-25T07:58:05.675Z,29.00
2019-04-25T07:59:05.186Z,29.00
2019-04-25T08:00:06.234Z,29.06
2019-04-25T08:01:05.871Z,29.06
2019-04-25T08:02:05.210Z,28.94
2019-04-25T08:03:05.485Z,28.81
2019-04-25T08:04:05.724Z,28.81
2019-04-25T08:05:05.656Z,28.81
2019-04-25T08:06:06.140Z,28.56
2019-04-25T08:07:05.337Z,28.50
2019-04-25T08:08:05.586Z,28.50
2019-04-25T08:09:06.099Z,28.31
2019-04-25T08:10:05.179Z,28.12
2019-04-25T08:11:05.585Z,27.88
2019-04-25T08:12:05.804Z,27.56
2019-04-25T08:13:06.083Z,27.25
2019-04-25T08:14:05.417Z,27.19
2019-04-25T08:15:06.075Z,27.38
2019-04-25T08:16:05.362Z,27.31
2019-04-25T08:17:05.639Z,27.31
2019-04-25T08:18:05.830Z,27.06
2019-04-25T08:19:05.350Z,27.06
2019-04-25T08:20:05.549Z,27.00
2019-04-25T08:21:05.596Z,27.06
2019-04-25T08:22:05.354Z,27.06
2019-04-25T08:23:05.735Z,27.00
2019-04-25T08:24:05.587Z,27.00
2019-04-25T08:25:05.516Z,26.94
2019-04-25T08:26:05.173Z,27.06
2019-04-25T08:27:05.718Z,27.12
2019-04-25T08:28:05.504Z,27.19
2019-04-25T08:29:05.720Z,27.19
2019-04-25T08:30:06.133Z,27.31
2019-04-25T08:31:05.730Z,27.25
2019-04-25T08:32:05.260Z,27.38
2019-04-25T08:33:05.651Z,27.31
2019-04-25T08:34:05.889Z,27.31
2019-04-25T08:35:05.974Z,27.25
2019-04-25T08:36:09.022Z,26.94
2019-04-25T08:37:17.276Z,26.75
2019-04-25T08:38:05.745Z,26.94
2019-04-25T08:39:05.498Z,26.88
2019-04-25T08:40:06.043Z,26.75
2019-04-25T08:41:05.240Z,26.94
2019-04-25T08:42:05.174Z,27.06
2019-04-25T08:43:05.635Z,26.81
2019-04-25T08:44:05.250Z,26.75
2019-04-25T08:45:05.652Z,26.81
2019-04-25T08:46:05.210Z,26.94
2019-04-25T08:47:05.585Z,27.00
2019-04-25T08:48:05.321Z,26.81
2019-04-25T08:49:06.378Z,26.81
2019-04-25T08:50:05.081Z,26.62
2019-04-25T08:51:05.411Z,26.44
2019-04-25T08:52:05.977Z,26.31
2019-04-25T08:53:05.349Z,26.19
2019-04-25T08:54:05.556Z,26.00
2019-04-25T08:55:05.830Z,25.62
2019-04-25T08:56:05.252Z,25.38
2019-04-25T08:57:05.782Z,25.50
2019-04-25T08:58:05.400Z,25.31
2019-04-25T08:59:07.787Z,25.38
2019-04-25T09:00:06.269Z,25.62
2019-04-25T09:01:05.593Z,25.56
2019-04-25T09:02:05.498Z,25.62
2019-04-25T09:03:05.909Z,25.56
2019-04-25T09:04:05.582Z,25.75
2019-04-25T09:05:05.900Z,25.50
2019-04-25T09:06:06.259Z,25.31
2019-04-25T09:07:05.528Z,25.25
2019-04-25T09:08:05.171Z,25.19
2019-04-25T09:09:07.137Z,25.00
2019-04-25T09:10:05.990Z,24.75
2019-04-25T09:11:05.074Z,24.69
2019-04-25T09:12:05.255Z,24.44
2019-04-25T09:13:06.040Z,24.44
2019-04-25T09:14:05.154Z,24.56
2019-04-25T09:15:05.489Z,24.81
2019-04-25T09:16:05.562Z,24.62
2019-04-25T09:17:05.089Z,24.69
2019-04-25T09:18:05.321Z,24.62
2019-04-25T09:19:05.628Z,25.00
2019-04-25T09:20:05.343Z,24.94
2019-04-25T09:21:06.493Z,24.94
2019-04-25T09:22:06.778Z,24.81
2019-04-25T09:23:05.642Z,24.62
2019-04-25T09:24:05.543Z,24.50
2019-04-25T09:25:05.738Z,24.44
2019-04-25T09:26:05.655Z,24.56
2019-04-25T09:27:05.325Z,24.38
2019-04-25T09:28:05.557Z,24.38
2019-04-25T09:29:16.586Z,24.25
2019-04-25T09:30:05.741Z,24.12
2019-04-25T09:31:05.469Z,24.25
2019-04-25T09:32:06.063Z,24.31
2019-04-25T09:33:05.329Z,24.25
2019-04-25T09:34:06.941Z,24.31
2019-04-25T09:35:05.086Z,24.50
2019-04-25T09:36:06.835Z,24.44
2019-04-25T09:37:05.600Z,24.31
2019-04-25T09:38:05.640Z,24.25
2019-04-25T09:39:05.431Z,24.19
2019-04-25T09:40:05.799Z,24.06
2019-04-25T09:41:05.327Z,24.06
2019-04-25T09:42:05.848Z,24.19
2019-04-25T09:43:05.561Z,24.25
2019-04-25T09:44:05.879Z,24.38
2019-04-25T09:45:05.519Z,24.31
2019-04-25T09:46:05.486Z,24.19
2019-04-25T09:47:05.086Z,24.06
2019-04-25T09:48:05.433Z,23.75
2019-04-25T09:49:05.184Z,23.75
2019-04-25T09:50:05.641Z,23.75
2019-04-25T09:51:05.615Z,23.69
2019-04-25T09:52:05.317Z,23.62
2019-04-25T09:53:05.091Z,23.81
2019-04-25T09:54:05.568Z,23.88
2019-04-25T09:55:05.994Z,23.75
2019-04-25T09:56:05.197Z,23.69
2019-04-25T09:57:05.508Z,23.88
2019-04-25T09:58:06.545Z,23.56
2019-04-25T09:59:05.319Z,23.50
2019-04-25T10:00:05.597Z,23.69
2019-04-25T10:01:05.801Z,23.69
2019-04-25T10:02:05.257Z,23.69
2019-04-25T10:03:05.515Z,23.69
2019-04-25T10:04:06.056Z,23.81
2019-04-25T10:05:05.262Z,23.75
2019-04-25T10:06:05.522Z,23.88
2019-04-25T10:07:05.086Z,23.88
2019-04-25T10:08:05.509Z,23.88
2019-04-25T10:09:06.466Z,23.88
2019-04-25T10:10:05.730Z,23.88
2019-04-25T10:11:06.048Z,23.81
2019-04-25T10:12:05.254Z,23.69
2019-04-25T10:13:06.453Z,23.69
2019-04-25T10:14:05.489Z,23.69
2019-04-25T10:15:05.104Z,23.75
2019-04-25T10:16:05.740Z,23.69
2019-04-25T10:17:05.971Z,23.75
2019-04-25T10:18:05.349Z,23.69
2019-04-25T10:19:05.738Z,23.75
2019-04-25T10:20:05.422Z,23.88
2019-04-25T10:21:05.580Z,24.00
2019-04-25T10:22:05.876Z,24.00
2019-04-25T10:23:05.298Z,24.06
2019-04-25T10:24:05.928Z,23.88
2019-04-25T10:25:05.240Z,23.94
2019-04-25T10:26:05.892Z,24.00
2019-04-25T10:27:05.254Z,24.19
2019-04-25T10:28:05.786Z,24.19
2019-04-25T10:29:05.381Z,24.31
2019-04-25T10:30:16.596Z,24.31
2019-04-25T10:31:05.502Z,24.38
2019-04-25T10:32:05.832Z,24.31
2019-04-25T10:33:05.886Z,24.38
2019-04-25T10:34:05.730Z,24.31
2019-04-25T10:35:05.815Z,24.12
2019-04-25T10:36:05.961Z,24.00
2019-04-25T10:37:06.324Z,23.88
2019-04-25T10:38:05.236Z,23.88
2019-04-25T10:39:08.489Z,23.88
2019-04-25T10:40:05.571Z,24.12
2019-04-25T10:41:05.339Z,24.25
2019-04-25T10:42:05.808Z,24.19
2019-04-25T10:43:06.442Z,24.12
2019-04-25T10:44:05.817Z,24.19
2019-04-25T10:45:05.924Z,24.06
2019-04-25T10:46:05.892Z,24.06
2019-04-25T10:47:05.322Z,24.06
2019-04-25T10:48:05.885Z,24.12
2019-04-25T10:49:05.665Z,24.12
2019-04-25T10:50:05.251Z,24.25
2019-04-25T10:51:05.811Z,24.31
2019-04-25T10:52:05.254Z,24.31
2019-04-25T10:53:05.602Z,24.44
2019-04-25T10:54:06.084Z,24.50
2019-04-25T10:55:05.265Z,24.50
2019-04-25T10:56:06.028Z,24.44
2019-04-25T10:57:06.536Z,24.44
2019-04-25T10:58:05.772Z,24.56
2019-04-25T10:59:05.418Z,24.62
2019-04-25T11:00:08.797Z,24.56
2019-04-25T11:01:05.125Z,24.44
2019-04-25T11:02:05.831Z,24.56
2019-04-25T11:03:05.809Z,24.56
2019-04-25T11:04:06.039Z,24.50
2019-04-25T11:05:05.182Z,24.56
2019-04-25T11:06:05.569Z,24.62
2019-04-25T11:07:06.278Z,24.69
2019-04-25T11:08:05.741Z,24.75
2019-04-25T11:09:05.913Z,24.81
2019-04-25T11:10:05.156Z,24.81
2019-04-25T11:11:05.416Z,24.81
2019-04-25T11:12:05.893Z,24.75
2019-04-25T11:13:05.649Z,24.69
2019-04-25T11:14:07.442Z,24.69
2019-04-25T11:15:05.081Z,24.69
2019-04-25T11:16:05.414Z,24.62
2019-04-25T11:17:05.248Z,24.75
2019-04-25T11:18:05.568Z,24.94
2019-04-25T11:19:05.158Z,24.88
2019-04-25T11:20:05.503Z,24.94
2019-04-25T11:21:06.020Z,24.94
2019-04-25T11:22:05.800Z,24.88
2019-04-25T11:23:05.968Z,24.88
2019-04-25T11:24:05.582Z,25.31
2019-04-25T11:25:05.966Z,25.50
2019-04-25T11:26:05.572Z,25.44
2019-04-25T11:27:05.812Z,25.56
2019-04-25T11:28:05.413Z,25.50
2019-04-25T11:29:05.480Z,25.69
2019-04-25T11:30:10.563Z,25.69
2019-04-25T11:31:05.896Z,25.81
2019-04-25T11:32:05.174Z,25.69
2019-04-25T11:33:05.574Z,25.56
2019-04-25T11:34:05.564Z,25.44
2019-04-25T11:35:06.936Z,25.44
2019-04-25T11:36:05.320Z,25.38
2019-04-25T11:37:05.977Z,25.44
2019-04-25T11:38:05.636Z,25.50
2019-04-25T11:39:05.224Z,25.50
2019-04-25T11:40:05.499Z,25.50
2019-04-25T11:41:06.043Z,25.75
2019-04-25T11:42:05.317Z,25.69
2019-04-25T11:43:05.689Z,25.62
2019-04-25T11:44:06.233Z,25.62
2019-04-25T11:45:10.416Z,25.81
2019-04-25T11:46:05.160Z,25.81
2019-04-25T11:47:06.859Z,25.75
2019-04-25T11:48:06.056Z,25.69
2019-04-25T11:49:05.385Z,25.69
2019-04-25T11:50:05.831Z,25.69
2019-04-25T11:51:06.582Z,25.62
2019-04-25T11:52:05.429Z,25.62
2019-04-25T11:53:05.877Z,25.69
2019-04-25T11:54:05.726Z,25.75
2019-04-25T11:55:06.180Z,26.00
2019-04-25T11:56:05.242Z,26.00
2019-04-25T11:57:06.780Z,25.62
2019-04-25T11:58:05.175Z,25.44
2019-04-25T11:59:05.816Z,25.38
2019-04-25T12:00:05.832Z,25.50
2019-04-25T12:01:05.974Z,25.75
2019-04-25T12:02:05.103Z,25.81
2019-04-25T12:03:05.238Z,26.19
2019-04-25T12:04:05.980Z,26.19
2019-04-25T12:05:05.580Z,26.12
2019-04-25T12:06:06.084Z,26.19
2019-04-25T12:07:08.554Z,26.19
2019-04-25T12:08:05.954Z,26.19
2019-04-25T12:09:05.593Z,26.12
2019-04-25T12:10:05.823Z,26.31
2019-04-25T12:11:06.178Z,26.31
2019-04-25T12:12:05.768Z,26.25
2019-04-25T12:13:05.502Z,26.31
2019-04-25T12:14:05.883Z,26.44
2019-04-25T12:15:05.653Z,26.50
2019-04-25T12:16:05.508Z,26.69
2019-04-25T12:17:05.950Z,26.69
2019-04-25T12:18:05.670Z,26.69
2019-04-25T12:19:05.884Z,26.56
2019-04-25T12:20:05.733Z,26.62
2019-04-25T12:21:06.235Z,26.50
2019-04-25T12:22:05.268Z,26.31
2019-04-25T12:23:10.108Z,26.38
2019-04-25T12:24:06.140Z,26.50
2019-04-25T12:25:05.884Z,26.50
2019-04-25T12:26:05.426Z,26.75
2019-04-25T12:27:05.261Z,26.81
2019-04-25T12:28:05.693Z,26.69
2019-04-25T12:29:05.958Z,26.56
2019-04-25T12:30:06.760Z,26.44
2019-04-25T12:31:05.438Z,26.44
2019-04-25T12:32:05.491Z,26.62
2019-04-25T12:33:17.960Z,26.62
2019-04-25T12:34:05.737Z,26.50
2019-04-25T12:35:06.056Z,26.44
2019-04-25T12:36:05.902Z,26.44
2019-04-25T12:37:06.737Z,26.50
2019-04-25T12:38:05.246Z,26.62
2019-04-25T12:39:07.068Z,26.88
2019-04-25T12:40:06.082Z,26.88
2019-04-25T12:41:05.739Z,26.94
2019-04-25T12:42:06.062Z,27.12
2019-04-25T12:43:05.484Z,27.25
2019-04-25T12:44:08.682Z,27.31
2019-04-25T12:45:05.083Z,27.38
2019-04-25T12:46:05.976Z,27.31
2019-04-25T12:47:05.586Z,27.12
2019-04-25T12:48:05.641Z,27.00
2019-04-25T12:49:05.343Z,27.00
2019-04-25T12:50:05.742Z,27.00
2019-04-25T12:51:06.425Z,26.94
2019-04-25T12:52:05.572Z,26.88